createdAt,value
2018-08-18T00:01:25.515Z,99.90
2018-08-18T00:03:53.460Z,99.90
2018-08-18T00:06:21.304Z,99.90
2018-08-18T00:08:49.208Z,99.90
2018-08-18T00:11:17.240Z,99.90
2018-08-18T00:13:52.720Z,99.90
2018-08-18T00:16:24.495Z,99.90
2018-08-18T00:18:55.095Z,99.90
2018-08-18T00:21:22.918Z,99.90
2018-08-18T00:24:03.866Z,99.90
2018-08-18T00:26:32.034Z,99.90
2018-08-18T00:29:00.107Z,99.90
2018-08-18T00:31:28.196Z,99.90
2018-08-18T00:33:56.358Z,99.90
2018-08-18T00:36:24.205Z,99.90
2018-08-18T00:38:54.634Z,99.90
2018-08-18T00:41:24.338Z,99.90
2018-08-18T00:43:52.343Z,99.90
2018-08-18T00:46:20.407Z,99.90
2018-08-18T00:48:48.227Z,99.90
2018-08-18T00:51:16.776Z,99.90
2018-08-18T00:53:45.291Z,99.90
2018-08-18T00:56:13.351Z,99.90
2018-08-18T00:58:51.683Z,99.90
2018-08-18T01:01:19.795Z,99.90
2018-08-18T01:03:53.202Z,99.90
2018-08-18T01:06:24.000Z,99.90
2018-08-18T01:08:53.663Z,99.90
2018-08-18T01:11:21.539Z,99.90
2018-08-18T01:13:50.015Z,99.90
2018-08-18T01:16:17.762Z,99.90
2018-08-18T01:18:45.573Z,99.90
2018-08-18T01:21:13.464Z,99.90
2018-08-18T01:23:41.470Z,99.90
2018-08-18T01:26:09.554Z,99.90
2018-08-18T01:28:37.456Z,99.90
2018-08-18T01:31:21.080Z,99.90
2018-08-18T01:33:48.884Z,99.90
2018-08-18T01:36:16.793Z,99.90
2018-08-18T01:38:44.599Z,99.90
2018-08-18T01:41:19.385Z,99.90
2018-08-18T01:43:51.752Z,99.90
2018-08-18T01:46:19.601Z,99.90
2018-08-18T01:48:48.590Z,99.90
2018-08-18T01:51:18.924Z,99.90
2018-08-18T01:53:48.327Z,99.90
2018-08-18T01:56:18.428Z,99.90
2018-08-18T01:58:46.272Z,99.90
2018-08-18T02:01:14.292Z,99.90
2018-08-18T02:03:42.273Z,99.90
2018-08-18T02:06:10.480Z,99.90
2018-08-18T02:08:54.176Z,99.90
2018-08-18T02:11:23.745Z,99.90
2018-08-18T02:13:52.193Z,99.90
2018-08-18T02:16:21.499Z,99.90
2018-08-18T02:18:49.533Z,99.90
2018-08-18T02:21:30.082Z,99.90
2018-08-18T02:24:01.253Z,99.90
2018-08-18T02:26:29.062Z,99.90
2018-08-18T02:28:56.996Z,99.90
2018-08-18T02:31:25.176Z,99.90
2018-08-18T02:33:53.111Z,99.90
2018-08-18T02:36:20.990Z,99.90
2018-08-18T02:38:54.630Z,99.90
2018-08-18T02:41:23.296Z,99.90
2018-08-18T02:43:51.356Z,99.90
2018-08-18T02:46:28.056Z,99.90
2018-08-18T02:48:55.875Z,99.90
2018-08-18T02:51:23.793Z,99.90
2018-08-18T02:53:51.732Z,99.90
2018-08-18T02:56:20.085Z,99.90
2018-08-18T02:58:53.389Z,99.90
2018-08-18T03:01:25.774Z,99.90
2018-08-18T03:03:53.841Z,99.90
2018-08-18T03:06:22.056Z,99.90
2018-08-18T03:08:49.879Z,99.90
2018-08-18T03:11:17.801Z,99.90
2018-08-18T03:13:45.623Z,99.90
2018-08-18T03:16:13.640Z,99.90
2018-08-18T03:18:45.599Z,99.90
2018-08-18T03:21:13.757Z,99.90
2018-08-18T03:23:53.052Z,99.90
2018-08-18T03:26:26.120Z,99.90
2018-08-18T03:28:54.337Z,99.90
2018-08-18T03:31:22.233Z,99.90
2018-08-18T03:33:50.324Z,99.90
2018-08-18T03:36:28.550Z,99.90
2018-08-18T03:38:57.121Z,99.90
2018-08-18T03:41:26.082Z,99.90
2018-08-18T03:43:54.674Z,99.90
2018-08-18T03:46:22.582Z,99.90
2018-08-18T03:48:50.854Z,99.90
2018-08-18T03:51:19.100Z,99.90
2018-08-18T03:53:47.181Z,99.90
2018-08-18T03:56:15.266Z,99.90
2018-08-18T03:58:54.768Z,99.90
2018-08-18T04:01:37.062Z,99.90
2018-08-18T04:04:06.644Z,99.90
2018-08-18T04:06:36.056Z,99.90
2018-08-18T04:09:06.695Z,99.90
2018-08-18T04:11:34.969Z,99.90
2018-08-18T04:14:02.895Z,99.90
2018-08-18T04:16:30.729Z,99.90
2018-08-18T04:19:00.922Z,99.90
2018-08-18T04:21:31.009Z,99.90
2018-08-18T04:23:58.875Z,99.90
2018-08-18T04:26:27.168Z,99.90
2018-08-18T04:28:55.184Z,99.90
2018-08-18T04:31:27.508Z,99.90
2018-08-18T04:33:55.358Z,99.90
2018-08-18T04:36:23.312Z,99.90
2018-08-18T04:38:51.380Z,99.90
2018-08-18T04:41:20.011Z,99.90
2018-08-18T04:43:48.148Z,99.90
2018-08-18T04:46:15.968Z,99.90
2018-08-18T04:48:43.991Z,99.90
2018-08-18T04:51:12.013Z,99.90
2018-08-18T04:53:39.920Z,99.90
2018-08-18T04:56:07.908Z,99.90
2018-08-18T04:58:35.842Z,99.90
2018-08-18T05:01:03.971Z,99.90
2018-08-18T05:03:32.130Z,99.90
2018-08-18T05:05:59.838Z,99.90
2018-08-18T05:08:27.784Z,99.90
2018-08-18T05:10:55.613Z,99.90
2018-08-18T05:13:23.711Z,99.90
2018-08-18T05:15:51.564Z,99.90
2018-08-18T05:18:19.464Z,99.90
2018-08-18T05:20:48.836Z,99.90
2018-08-18T05:23:23.505Z,99.90
2018-08-18T05:25:52.319Z,99.90
2018-08-18T05:28:20.251Z,99.90
2018-08-18T05:30:50.542Z,99.90
2018-08-18T05:33:18.613Z,99.90
2018-08-18T05:35:46.538Z,99.90
2018-08-18T05:38:14.392Z,99.90
2018-08-18T05:40:42.454Z,99.90
2018-08-18T05:43:10.457Z,99.90
2018-08-18T05:45:38.373Z,99.90
2018-08-18T05:48:06.551Z,99.90
2018-08-18T05:50:34.552Z,99.90
2018-08-18T05:53:17.765Z,99.90
2018-08-18T05:55:46.044Z,99.90
2018-08-18T05:58:14.019Z,99.90
2018-08-18T06:00:41.983Z,99.90
2018-08-18T06:03:09.980Z,99.90
2018-08-18T06:05:38.076Z,99.90
2018-08-18T06:08:06.205Z,99.90
2018-08-18T06:10:34.183Z,99.90
2018-08-18T06:13:11.135Z,99.90
2018-08-18T06:15:40.150Z,99.90
2018-08-18T06:18:08.249Z,99.90
2018-08-18T06:20:36.149Z,99.90
2018-08-18T06:23:04.181Z,99.90
2018-08-18T06:25:32.088Z,99.90
2018-08-18T06:28:00.210Z,99.90
2018-08-18T06:30:28.209Z,99.90
2018-08-18T06:32:56.243Z,99.90
2018-08-18T06:35:24.193Z,99.90
2018-08-18T06:37:57.689Z,99.90
2018-08-18T06:40:25.556Z,99.90
2018-08-18T06:42:53.495Z,99.90
2018-08-18T06:45:21.367Z,99.90
2018-08-18T06:47:49.284Z,99.90
2018-08-18T06:50:18.260Z,99.90
2018-08-18T06:52:46.813Z,99.90
2018-08-18T06:55:17.274Z,99.90
2018-08-18T06:57:49.669Z,99.90
2018-08-18T07:00:22.570Z,99.90
2018-08-18T07:02:56.744Z,99.90
2018-08-18T07:05:24.704Z,99.90
2018-08-18T07:07:52.633Z,99.90
2018-08-18T07:10:30.403Z,99.90
2018-08-18T07:13:00.419Z,99.90
2018-08-18T07:15:31.664Z,99.90
2018-08-18T07:17:59.634Z,99.90
2018-08-18T07:20:27.621Z,99.90
2018-08-18T07:22:55.697Z,99.90
2018-08-18T07:25:24.003Z,99.90
2018-08-18T07:27:58.250Z,99.90
2018-08-18T07:30:26.943Z,99.90
2018-08-18T07:32:54.725Z,99.90
2018-08-18T07:35:22.780Z,99.90
2018-08-18T07:37:50.548Z,99.90
2018-08-18T07:40:27.198Z,99.90
2018-08-18T07:42:59.816Z,99.90
2018-08-18T07:45:27.896Z,99.90
2018-08-18T07:47:55.727Z,99.90
2018-08-18T07:50:23.551Z,99.90
2018-08-18T07:52:51.635Z,99.90
2018-08-18T07:55:19.520Z,99.90
2018-08-18T07:57:53.198Z,99.90
2018-08-18T08:00:21.267Z,99.90
2018-08-18T08:02:49.193Z,99.90
2018-08-18T08:05:17.037Z,99.90
2018-08-18T08:07:44.982Z,99.90
2018-08-18T08:10:12.812Z,99.90
2018-08-18T08:12:40.935Z,99.90
2018-08-18T08:15:08.787Z,99.90
2018-08-18T08:17:36.910Z,99.90
2018-08-18T08:20:05.322Z,99.90
2018-08-18T08:22:33.130Z,99.90
2018-08-18T08:25:01.176Z,99.90
2018-08-18T08:27:29.109Z,99.90
2018-08-18T08:29:57.078Z,99.90
2018-08-18T08:32:25.288Z,99.90
2018-08-18T08:34:53.310Z,99.90
2018-08-18T08:37:21.320Z,99.90
2018-08-18T08:39:49.408Z,99.90
2018-08-18T08:42:17.356Z,99.90
2018-08-18T08:44:45.251Z,99.90
2018-08-18T08:47:14.345Z,99.90
2018-08-18T08:49:42.321Z,99.90
2018-08-18T08:52:10.253Z,99.90
2018-08-18T08:54:39.450Z,99.90
2018-08-18T08:57:08.832Z,99.90
2018-08-18T08:59:38.052Z,99.90
2018-08-18T09:02:07.561Z,99.90
2018-08-18T09:04:35.768Z,99.90
2018-08-18T09:07:07.064Z,99.80
2018-08-18T09:09:35.064Z,97.50
2018-08-18T09:12:03.160Z,97.40
2018-08-18T09:14:31.219Z,95.80
2018-08-18T09:16:59.158Z,95.20
2018-08-18T09:19:27.074Z,95.90
2018-08-18T09:21:57.498Z,94.90
2018-08-18T09:24:26.984Z,95.80
2018-08-18T09:26:57.088Z,96.70
2018-08-18T09:29:26.037Z,97.90
2018-08-18T09:31:54.090Z,97.30
2018-08-18T09:34:22.049Z,95.80
2018-08-18T09:36:50.130Z,95.80
2018-08-18T09:39:24.761Z,96.00
2018-08-18T09:41:52.910Z,96.00
2018-08-18T09:44:26.219Z,95.60
2018-08-18T09:46:54.752Z,95.00
2018-08-18T09:49:22.736Z,94.00
2018-08-18T09:51:50.920Z,93.60
2018-08-18T09:54:19.035Z,91.70
2018-08-18T09:56:46.829Z,91.90
2018-08-18T09:59:14.701Z,88.80
2018-08-18T10:01:42.705Z,91.00
2018-08-18T10:04:10.528Z,90.10
2018-08-18T10:06:38.445Z,90.20
2018-08-18T10:09:07.756Z,87.00
2018-08-18T10:11:36.001Z,85.60
2018-08-18T10:14:04.224Z,85.40
2018-08-18T10:16:32.099Z,83.00
2018-08-18T10:19:00.073Z,78.10
2018-08-18T10:21:28.104Z,77.80
2018-08-18T10:23:55.981Z,77.20
2018-08-18T10:26:23.802Z,78.80
2018-08-18T10:29:07.356Z,72.80
2018-08-18T10:31:39.887Z,72.20
2018-08-18T10:34:08.445Z,66.50
2018-08-18T10:36:36.466Z,66.70
2018-08-18T10:39:06.036Z,71.80
2018-08-18T10:41:44.129Z,69.50
2018-08-18T10:44:11.974Z,70.10
2018-08-18T10:46:39.716Z,63.90
2018-08-18T10:49:13.929Z,65.40
2018-08-18T10:51:53.030Z,66.50
2018-08-18T10:54:20.871Z,67.70
2018-08-18T10:56:48.687Z,65.50
2018-08-18T10:59:18.768Z,62.80
2018-08-18T11:01:58.943Z,63.90
2018-08-18T11:04:34.354Z,62.90
2018-08-18T11:07:02.419Z,61.30
2018-08-18T11:09:31.332Z,61.30
2018-08-18T11:11:59.403Z,60.80
2018-08-18T11:14:27.396Z,60.40
2018-08-18T11:16:55.301Z,57.80
2018-08-18T11:19:23.491Z,56.90
2018-08-18T11:22:03.044Z,58.50
2018-08-18T11:24:30.765Z,57.30
2018-08-18T11:26:58.619Z,55.00
2018-08-18T11:29:26.589Z,56.00
2018-08-18T11:31:54.404Z,52.00
2018-08-18T11:34:22.304Z,54.70
2018-08-18T11:37:01.306Z,53.30
2018-08-18T11:39:30.308Z,53.00
2018-08-18T11:41:58.833Z,51.20
2018-08-18T11:44:26.689Z,51.60
2018-08-18T11:46:54.454Z,51.10
2018-08-18T11:49:23.970Z,51.30
2018-08-18T11:51:51.860Z,49.10
2018-08-18T11:54:19.856Z,49.70
2018-08-18T11:56:52.501Z,48.90
2018-08-18T11:59:20.380Z,49.10
2018-08-18T12:01:49.883Z,48.00
2018-08-18T12:04:19.501Z,47.90
2018-08-18T12:06:52.971Z,48.10
2018-08-18T12:09:21.386Z,48.40
2018-08-18T12:11:49.776Z,48.20
2018-08-18T12:14:17.718Z,48.70
2018-08-18T12:16:45.570Z,47.70
2018-08-18T12:19:13.511Z,47.70
2018-08-18T12:21:46.154Z,44.40
2018-08-18T12:24:15.699Z,45.80
2018-08-18T12:26:53.576Z,43.10
2018-08-18T12:29:21.743Z,43.40
2018-08-18T12:31:49.485Z,40.80
2018-08-18T12:34:17.457Z,40.00
2018-08-18T12:36:45.369Z,40.70
2018-08-18T12:39:13.164Z,40.70
2018-08-18T12:41:41.185Z,42.30
2018-08-18T12:44:09.188Z,41.80
2018-08-18T12:46:42.493Z,41.70
2018-08-18T12:49:10.437Z,43.60
2018-08-18T12:51:38.661Z,42.30
2018-08-18T12:54:06.492Z,42.50
2018-08-18T12:56:34.208Z,39.60
2018-08-18T12:59:01.987Z,39.00
2018-08-18T13:01:41.420Z,42.60
2018-08-18T13:04:12.165Z,43.30
2018-08-18T13:06:52.028Z,42.10
2018-08-18T13:09:21.375Z,41.90
2018-08-18T13:11:50.394Z,41.10
2018-08-18T13:14:27.122Z,41.40
2018-08-18T13:16:54.897Z,42.20
2018-08-18T13:19:24.275Z,43.40
2018-08-18T13:21:52.165Z,42.20
2018-08-18T13:24:19.922Z,40.00
2018-08-18T13:26:47.900Z,41.70
2018-08-18T13:29:15.709Z,42.80
2018-08-18T13:31:44.113Z,42.00
2018-08-18T13:34:15.505Z,43.50
2018-08-18T13:36:44.113Z,43.30
2018-08-18T13:39:13.662Z,42.10
2018-08-18T13:41:42.215Z,42.60
2018-08-18T13:44:10.084Z,41.30
2018-08-18T13:46:50.866Z,42.10
2018-08-18T13:49:20.228Z,39.80
2018-08-18T13:51:48.136Z,38.50
2018-08-18T13:54:17.006Z,40.40
2018-08-18T13:56:44.950Z,41.20
2018-08-18T13:59:13.091Z,39.20
2018-08-18T14:01:43.051Z,40.00
2018-08-18T14:04:18.374Z,39.50
2018-08-18T14:06:52.122Z,41.50
2018-08-18T14:09:20.097Z,39.20
2018-08-18T14:11:48.404Z,41.10
2018-08-18T14:14:16.396Z,40.10
2018-08-18T14:16:44.306Z,40.20
2018-08-18T14:19:12.438Z,39.40
2018-08-18T14:21:40.441Z,39.00
2018-08-18T14:24:08.250Z,39.40
2018-08-18T14:26:36.136Z,37.00
2018-08-18T14:29:04.415Z,36.10
2018-08-18T14:31:32.264Z,36.70
2018-08-18T14:34:00.373Z,38.60
2018-08-18T14:36:28.208Z,39.00
2018-08-18T14:38:55.986Z,40.60
2018-08-18T14:41:34.657Z,40.50
2018-08-18T14:44:02.796Z,39.70
2018-08-18T14:46:30.716Z,38.30
2018-08-18T14:48:58.598Z,38.70
2018-08-18T14:51:26.541Z,37.50
2018-08-18T14:53:54.489Z,38.60
2018-08-18T14:56:22.261Z,39.90
2018-08-18T14:58:50.167Z,40.20
2018-08-18T15:01:18.052Z,40.70
2018-08-18T15:03:45.911Z,40.00
2018-08-18T15:06:13.698Z,41.70
2018-08-18T15:08:41.827Z,43.50
2018-08-18T15:11:09.635Z,43.80
2018-08-18T15:13:37.508Z,44.00
2018-08-18T15:16:05.713Z,44.50
2018-08-18T15:18:33.462Z,45.60
2018-08-18T15:21:01.309Z,44.50
2018-08-18T15:23:29.002Z,44.40
2018-08-18T15:25:56.976Z,44.30
2018-08-18T15:28:26.700Z,44.40
2018-08-18T15:30:54.823Z,44.20
2018-08-18T15:33:25.128Z,44.90
2018-08-18T15:35:52.965Z,44.00
2018-08-18T15:38:36.764Z,44.60
2018-08-18T15:41:04.772Z,44.40
2018-08-18T15:43:32.605Z,45.00
2018-08-18T15:46:01.873Z,45.50
2018-08-18T15:48:29.820Z,46.60
2018-08-18T15:50:57.624Z,47.20
2018-08-18T15:53:35.475Z,47.40
2018-08-18T15:56:03.328Z,47.80
2018-08-18T15:58:31.228Z,47.10
2018-08-18T16:00:59.057Z,47.60
2018-08-18T16:03:26.927Z,47.90
2018-08-18T16:05:54.723Z,49.20
2018-08-18T16:08:22.605Z,48.30
2018-08-18T16:10:50.276Z,48.80
2018-08-18T16:13:18.116Z,48.80
2018-08-18T16:15:45.992Z,49.80
2018-08-18T16:18:13.916Z,50.80
2018-08-18T16:20:42.085Z,51.20
2018-08-18T16:23:15.438Z,51.80
2018-08-18T16:25:43.243Z,52.60
2018-08-18T16:28:11.146Z,53.10
2018-08-18T16:30:39.034Z,53.40
2018-08-18T16:33:19.588Z,54.00
2018-08-18T16:35:47.479Z,53.90
2018-08-18T16:38:15.437Z,53.60
2018-08-18T16:40:43.327Z,54.10
2018-08-18T16:43:12.410Z,54.70
2018-08-18T16:45:40.332Z,54.90
2018-08-18T16:48:10.910Z,55.60
2018-08-18T16:50:39.732Z,56.00
2018-08-18T16:53:08.948Z,56.20
2018-08-18T16:55:38.161Z,56.80
2018-08-18T16:58:06.394Z,57.20
2018-08-18T17:01:09.886Z,58.00
2018-08-18T17:03:37.943Z,58.80
2018-08-18T17:06:05.818Z,59.20
2018-08-18T17:08:33.672Z,59.70
2018-08-18T17:11:01.464Z,60.80
2018-08-18T17:13:31.945Z,61.50
2018-08-18T17:15:59.859Z,61.80
2018-08-18T17:18:27.944Z,63.00
2018-08-18T17:20:58.020Z,63.00
2018-08-18T17:23:27.307Z,63.70
2018-08-18T17:25:55.075Z,64.20
2018-08-18T17:28:22.925Z,64.30
2018-08-18T17:30:51.752Z,65.00
2018-08-18T17:33:21.455Z,65.70
2018-08-18T17:35:49.482Z,66.80
2018-08-18T17:38:17.532Z,67.60
2018-08-18T17:40:45.638Z,68.10
2018-08-18T17:43:13.665Z,68.30
2018-08-18T17:45:47.940Z,68.80
2018-08-18T17:48:15.944Z,69.70
2018-08-18T17:50:44.129Z,70.60
2018-08-18T17:53:12.215Z,70.40
2018-08-18T17:55:40.224Z,71.50
2018-08-18T17:58:08.048Z,72.40
2018-08-18T18:00:35.941Z,73.90
2018-08-18T18:03:06.261Z,75.00
2018-08-18T18:05:34.467Z,75.80
2018-08-18T18:08:05.980Z,76.90
2018-08-18T18:10:35.008Z,77.20
2018-08-18T18:13:14.213Z,78.40
2018-08-18T18:15:42.987Z,79.40
2018-08-18T18:18:14.810Z,81.10
2018-08-18T18:20:44.440Z,82.40
2018-08-18T18:23:13.469Z,83.90
2018-08-18T18:25:41.617Z,85.10
2018-08-18T18:28:09.593Z,86.20
2018-08-18T18:30:37.416Z,86.80
2018-08-18T18:33:06.184Z,88.10
2018-08-18T18:35:34.237Z,89.20
2018-08-18T18:38:03.337Z,90.20
2018-08-18T18:40:40.689Z,90.60
2018-08-18T18:43:08.781Z,91.00
2018-08-18T18:45:36.918Z,91.40
2018-08-18T18:48:05.454Z,91.80
2018-08-18T18:50:33.514Z,91.70
2018-08-18T18:53:01.489Z,91.60
2018-08-18T18:55:29.606Z,91.50
2018-08-18T18:58:09.844Z,91.40
2018-08-18T19:00:38.980Z,91.60
2018-08-18T19:03:08.298Z,91.50
2018-08-18T19:05:36.395Z,91.60
2018-08-18T19:08:12.760Z,91.80
2018-08-18T19:10:40.800Z,91.80
2018-08-18T19:13:09.305Z,91.90
2018-08-18T19:15:37.497Z,92.00
2018-08-18T19:18:06.388Z,92.10
2018-08-18T19:20:34.305Z,92.40
2018-08-18T19:23:09.040Z,92.40
2018-08-18T19:25:38.168Z,92.50
2018-08-18T19:28:09.535Z,92.60
2018-08-18T19:30:37.465Z,92.70
2018-08-18T19:33:05.337Z,92.70
2018-08-18T19:35:41.840Z,92.60
2018-08-18T19:38:09.739Z,92.80
2018-08-18T19:40:39.126Z,93.00
2018-08-18T19:43:09.925Z,93.30
2018-08-18T19:45:37.979Z,93.30
2018-08-18T19:48:05.969Z,93.60
2018-08-18T19:50:33.825Z,93.90
2018-08-18T19:53:07.330Z,94.00
2018-08-18T19:55:35.332Z,94.10
2018-08-18T19:58:03.400Z,94.40
2018-08-18T20:00:31.194Z,94.50
2018-08-18T20:03:02.256Z,94.80
2018-08-18T20:05:30.485Z,95.10
2018-08-18T20:07:58.360Z,95.20
2018-08-18T20:10:26.245Z,95.20
2018-08-18T20:12:54.092Z,95.30
2018-08-18T20:15:21.872Z,95.50
2018-08-18T20:17:49.788Z,95.60
2018-08-18T20:20:18.529Z,95.70
2018-08-18T20:22:46.426Z,95.90
2018-08-18T20:25:14.455Z,96.00
2018-08-18T20:27:42.900Z,96.10
2018-08-18T20:30:11.353Z,96.10
2018-08-18T20:32:39.279Z,96.60
2018-08-18T20:35:07.300Z,96.30
2018-08-18T20:37:35.184Z,96.70
2018-08-18T20:40:03.672Z,96.30
2018-08-18T20:42:37.226Z,96.50
2018-08-18T20:45:05.236Z,96.60
2018-08-18T20:47:33.132Z,96.60
2018-08-18T20:50:01.044Z,96.80
2018-08-18T20:52:29.052Z,96.90
2018-08-18T20:54:57.892Z,96.90
2018-08-18T20:57:25.844Z,97.00
2018-08-18T20:59:53.710Z,97.00
2018-08-18T21:02:21.608Z,96.90
2018-08-18T21:04:56.174Z,97.10
2018-08-18T21:07:24.256Z,97.10
2018-08-18T21:09:52.152Z,97.10
2018-08-18T21:12:20.157Z,97.20
2018-08-18T21:14:48.195Z,97.30
2018-08-18T21:17:16.267Z,97.50
2018-08-18T21:19:44.656Z,97.60
2018-08-18T21:22:13.785Z,97.90
2018-08-18T21:24:42.022Z,97.90
2018-08-18T21:27:09.920Z,98.10
2018-08-18T21:29:37.971Z,98.20
2018-08-18T21:32:05.974Z,98.20
2018-08-18T21:34:40.012Z,98.10
2018-08-18T21:37:07.873Z,98.20
2018-08-18T21:39:35.890Z,98.10
2018-08-18T21:42:04.436Z,98.10
2018-08-18T21:44:32.256Z,98.20
2018-08-18T21:47:00.139Z,98.10
2018-08-18T21:49:28.136Z,98.10
2018-08-18T21:51:57.028Z,98.20
2018-08-18T21:54:25.716Z,98.50
2018-08-18T21:56:53.605Z,98.50
2018-08-18T21:59:21.462Z,98.60
2018-08-18T22:01:49.521Z,98.80
2018-08-18T22:04:17.520Z,98.80
2018-08-18T22:06:45.374Z,98.90
2018-08-18T22:09:33.014Z,98.90
2018-08-18T22:12:00.950Z,99.00
2018-08-18T22:14:28.789Z,99.00
2018-08-18T22:16:57.660Z,99.10
2018-08-18T22:19:26.488Z,99.00
2018-08-18T22:21:54.332Z,99.40
2018-08-18T22:24:22.368Z,99.90
2018-08-18T22:26:50.408Z,99.90
2018-08-18T22:29:22.372Z,99.90
2018-08-18T22:31:50.475Z,99.90
2018-08-18T22:34:18.474Z,99.90
2018-08-18T22:36:46.461Z,99.90
2018-08-18T22:39:14.364Z,99.90
2018-08-18T22:41:43.484Z,99.90
2018-08-18T22:44:11.339Z,99.90
2018-08-18T22:46:39.299Z,99.90
2018-08-18T22:49:07.227Z,99.90
2018-08-18T22:51:35.171Z,99.90
2018-08-18T22:54:03.040Z,99.90
2018-08-18T22:56:34.877Z,99.90
2018-08-18T22:59:04.825Z,99.90
2018-08-18T23:01:34.265Z,99.90
2018-08-18T23:04:03.008Z,99.90
2018-08-18T23:06:32.714Z,99.90
2018-08-18T23:09:00.689Z,99.90
2018-08-18T23:11:28.489Z,99.90
2018-08-18T23:13:56.460Z,99.90
2018-08-18T23:16:24.414Z,99.90
2018-08-18T23:18:52.268Z,99.90
2018-08-18T23:21:25.492Z,99.90
2018-08-18T23:23:53.297Z,99.90
2018-08-18T23:26:21.309Z,99.90
2018-08-18T23:28:49.248Z,99.90
2018-08-18T23:31:17.348Z,99.90
2018-08-18T23:33:45.349Z,99.90
2018-08-18T23:36:13.303Z,99.90
2018-08-18T23:38:46.791Z,99.90
2018-08-18T23:41:14.642Z,99.90
2018-08-18T23:43:42.477Z,99.90
2018-08-18T23:46:10.461Z,99.90
2018-08-18T23:48:38.481Z,99.90
2018-08-18T23:51:06.139Z,99.90
2018-08-18T23:53:34.077Z,99.90
2018-08-18T23:56:02.124Z,99.90
